Time;durP1;ratioP1;P1;durP2;ratioP2;P2;SDS_P1;SDS_P2;PMS_P1;PMS_P2;Temp;Humidity;BMP_temperature;BMP_pressure;BME280_temperature;BME280_humidity;BME280_pressure;Samples;Min_cycle;Max_cycle;Signal;HPM_P1;HPM_P2
2023/02/24 00:01:07;;;;;;;15.50;8.52;;;7.90;99.90;;;;;;5091037;28;20219;-73
2023/02/24 00:03:35;;;;;;;15.90;9.10;;;7.90;99.90;;;;;;5090932;28;20204;-72
2023/02/24 00:06:04;;;;;;;11.50;8.70;;;7.90;99.90;;;;;;5090890;28;20202;-72
2023/02/24 00:08:31;;;;;;;18.15;8.70;;;7.90;99.90;;;;;;5091041;28;20231;-72
2023/02/24 00:10:58;;;;;;;17.33;10.25;;;7.80;99.90;;;;;;5091328;28;20191;-71
2023/02/24 00:13:25;;;;;;;14.10;8.88;;;7.80;99.90;;;;;;5070696;28;20207;-73
2023/02/24 00:16:01;;;;;;;13.93;9.25;;;7.90;99.90;;;;;;5071104;28;20204;-71
2023/02/24 00:18:28;;;;;;;12.82;9.18;;;7.80;99.90;;;;;;5070607;28;20576;-72
2023/02/24 00:20:56;;;;;;;14.00;9.52;;;7.80;99.90;;;;;;5070033;28;20208;-73
2023/02/24 00:23:23;;;;;;;18.10;9.90;;;7.80;99.90;;;;;;5086851;28;20207;-71
2023/02/24 00:25:57;;;;;;;17.17;10.18;;;7.80;99.90;;;;;;5090897;28;20265;-71
2023/02/24 00:28:24;;;;;;;14.00;9.63;;;7.90;99.90;;;;;;5090915;28;20215;-71
2023/02/24 00:30:51;;;;;;;16.95;9.43;;;7.90;99.90;;;;;;5090984;28;20199;-71
2023/02/24 00:33:22;;;;;;;15.88;10.25;;;7.90;99.90;;;;;;5089957;28;20195;-72
2023/02/24 00:35:49;;;;;;;16.80;11.18;;;7.90;99.90;;;;;;5090519;28;20286;-72
2023/02/24 00:38:16;;;;;;;17.02;11.30;;;7.90;99.90;;;;;;5090828;28;20618;-71
2023/02/24 00:40:44;;;;;;;17.17;10.85;;;8.00;99.90;;;;;;5091779;28;20795;-72
2023/02/24 00:43:11;;;;;;;16.75;10.43;;;8.10;99.90;;;;;;5090084;28;20204;-73
2023/02/24 00:45:38;;;;;;;18.77;11.20;;;8.10;99.90;;;;;;5090631;28;20211;-71
2023/02/24 00:48:05;;;;;;;20.60;12.00;;;8.20;99.90;;;;;;5090348;28;20215;-73
2023/02/24 00:50:33;;;;;;;20.45;12.02;;;8.20;99.90;;;;;;5090589;28;20196;-73
2023/02/24 00:53:00;;;;;;;20.70;10.27;;;8.20;99.90;;;;;;5089955;28;20223;-73
2023/02/24 00:55:35;;;;;;;19.10;11.05;;;8.20;99.90;;;;;;5090693;28;20200;-72
2023/02/24 00:58:03;;;;;;;20.33;11.73;;;8.30;99.90;;;;;;5090194;28;20642;-73
2023/02/24 01:00:34;;;;;;;16.48;9.95;;;8.30;99.90;;;;;;5090569;28;20210;-73
2023/02/24 01:03:01;;;;;;;16.25;10.90;;;8.30;99.90;;;;;;5089682;28;20196;-73
2023/02/24 01:05:28;;;;;;;21.60;12.75;;;8.30;99.90;;;;;;5090250;28;20598;-73
2023/02/24 01:07:57;;;;;;;17.88;12.07;;;8.40;99.90;;;;;;5087649;28;20219;-73
2023/02/24 01:10:27;;;;;;;21.00;11.30;;;8.40;99.90;;;;;;5089915;28;20215;-73
2023/02/24 01:12:52;;;;;;;16.52;11.75;;;8.40;99.90;;;;;;5088928;28;20212;-72
2023/02/24 01:15:22;;;;;;;22.20;12.50;;;8.40;99.90;;;;;;5090370;28;20200;-72
2023/02/24 01:17:49;;;;;;;16.13;10.75;;;8.50;99.90;;;;;;5081563;28;20215;-73
2023/02/24 01:20:17;;;;;;;17.52;11.68;;;8.50;99.90;;;;;;5090248;28;20207;-72
2023/02/24 01:22:45;;;;;;;17.88;11.50;;;8.50;99.90;;;;;;5205996;22;20903;-72
2023/02/24 01:25:13;;;;;;;19.42;11.68;;;8.50;99.90;;;;;;5069923;28;20663;-73
2023/02/24 01:27:40;;;;;;;17.95;11.68;;;8.50;99.90;;;;;;5069335;28;20224;-73
2023/02/24 01:30:12;;;;;;;17.27;11.82;;;8.50;99.90;;;;;;5069190;28;20200;-73
2023/02/24 01:32:40;;;;;;;19.52;11.25;;;8.50;99.90;;;;;;5069680;28;20200;-73
2023/02/24 01:35:07;;;;;;;17.00;11.45;;;8.40;99.90;;;;;;5070045;28;20230;-72
2023/02/24 01:37:34;;;;;;;20.08;12.77;;;8.40;99.90;;;;;;5069969;28;20228;-74
2023/02/24 01:40:06;;;;;;;14.10;10.52;;;8.50;99.90;;;;;;5069853;28;20733;-73
2023/02/24 01:42:34;;;;;;;14.00;10.65;;;8.40;99.90;;;;;;5069304;28;20216;-73
2023/02/24 01:45:13;;;;;;;17.60;11.43;;;8.50;99.90;;;;;;5069937;28;20291;-72
2023/02/24 01:47:41;;;;;;;18.52;12.18;;;8.50;99.90;;;;;;5069858;28;20220;-73
2023/02/24 01:50:13;;;;;;;17.98;12.00;;;8.50;99.90;;;;;;5069814;28;20201;-72
2023/02/24 01:52:43;;;;;;;13.55;9.98;;;8.50;99.90;;;;;;5069516;28;20207;-73
2023/02/24 01:55:15;;;;;;;16.92;10.65;;;8.50;99.90;;;;;;5070028;28;20196;-73
2023/02/24 01:57:44;;;;;;;17.85;10.55;;;8.50;99.90;;;;;;5069720;28;20246;-73
2023/02/24 02:00:31;;;;;;;14.63;11.07;;;8.50;99.90;;;;;;5069961;28;20246;-72
2023/02/24 02:03:00;;;;;;;17.75;10.05;;;8.50;99.90;;;;;;5081930;28;20249;-72
2023/02/24 02:05:27;;;;;;;15.85;11.07;;;8.40;99.90;;;;;;5089836;28;20207;-72
2023/02/24 02:07:56;;;;;;;13.82;9.55;;;8.50;99.90;;;;;;5089841;28;20318;-72
2023/02/24 02:10:23;;;;;;;13.93;10.63;;;8.50;99.90;;;;;;5090008;28;20199;-73
2023/02/24 02:12:53;;;;;;;15.02;10.80;;;8.50;99.90;;;;;;5089140;28;20188;-73
2023/02/24 02:15:20;;;;;;;16.80;9.13;;;8.50;99.90;;;;;;5090157;28;20254;-73
2023/02/24 02:17:56;;;;;;;16.00;9.98;;;8.50;99.90;;;;;;5089675;28;20231;-73
2023/02/24 02:20:56;;;;;;;14.73;10.40;;;8.50;99.90;;;;;;5089984;28;20199;-73
2023/02/24 02:23:40;;;;;;;17.00;10.45;;;8.50;99.90;;;;;;5089289;28;20206;-73
2023/02/24 02:26:27;;;;;;;13.50;10.43;;;8.40;99.90;;;;;;5069496;28;20377;-72
2023/02/24 02:29:33;;;;;;;14.70;10.30;;;8.40;99.90;;;;;;5081599;28;20283;-72
2023/02/24 02:32:30;;;;;;;15.38;9.80;;;8.40;99.90;;;;;;5048463;28;20718;-73
2023/02/24 02:35:06;;;;;;;15.20;11.05;;;8.40;99.90;;;;;;5089617;28;20223;-72
2023/02/24 02:37:38;;;;;;;17.08;11.13;;;8.40;99.90;;;;;;5089644;28;20573;-72
2023/02/24 02:40:17;;;;;;;18.15;11.10;;;8.30;99.90;;;;;;5089847;28;20199;-73
2023/02/24 02:42:48;;;;;;;15.43;10.90;;;8.30;99.90;;;;;;5092976;28;20222;-73
2023/02/24 02:45:19;;;;;;;15.68;10.30;;;8.30;99.90;;;;;;5093559;28;20594;-73
2023/02/24 02:47:52;;;;;;;15.15;11.30;;;8.30;99.90;;;;;;5093076;28;20226;-72
2023/02/24 02:50:25;;;;;;;16.00;9.63;;;8.30;99.90;;;;;;5093489;28;20300;-72
2023/02/24 02:52:57;;;;;;;14.00;10.25;;;8.30;99.90;;;;;;5092636;28;20223;-73
2023/02/24 02:55:31;;;;;;;15.70;10.52;;;8.30;99.90;;;;;;5093420;28;20204;-72
2023/02/24 02:58:00;;;;;;;14.93;9.90;;;8.30;99.90;;;;;;5073056;28;20240;-73
2023/02/24 03:00:33;;;;;;;20.90;11.02;;;8.30;99.90;;;;;;5072723;28;20200;-73
2023/02/24 03:03:07;;;;;;;12.82;9.55;;;8.30;99.90;;;;;;5071998;28;20262;-73
2023/02/24 03:05:45;;;;;;;14.63;10.48;;;8.30;99.90;;;;;;5072690;28;20197;-73
2023/02/24 03:08:15;;;;;;;18.00;10.77;;;8.30;99.90;;;;;;5073064;28;20224;-72
2023/02/24 03:10:49;;;;;;;17.23;11.52;;;8.20;99.90;;;;;;5073375;28;20304;-73
2023/02/24 03:13:18;;;;;;;18.02;10.07;;;8.20;99.90;;;;;;5072480;28;20287;-72
2023/02/24 03:15:47;;;;;;;19.65;10.88;;;8.20;99.90;;;;;;5072524;28;20571;-72
2023/02/24 03:18:19;;;;;;;13.65;11.40;;;8.10;99.90;;;;;;5072588;28;20224;-73
2023/02/24 03:20:51;;;;;;;15.65;10.85;;;8.20;99.90;;;;;;5091897;28;20199;-73
2023/02/24 03:23:19;;;;;;;15.63;9.90;;;8.20;99.90;;;;;;5092160;28;20212;-72
2023/02/24 03:25:57;;;;;;;18.63;11.27;;;8.20;99.90;;;;;;5092428;28;20238;-73
2023/02/24 03:28:32;;;;;;;13.45;9.93;;;8.20;99.90;;;;;;5092722;28;20223;-72
2023/02/24 03:31:06;;;;;;;21.33;10.35;;;8.20;99.90;;;;;;5092446;28;20618;-72
2023/02/24 03:33:36;;;;;;;19.35;11.15;;;8.20;99.90;;;;;;5091964;28;20210;-73
2023/02/24 03:36:05;;;;;;;18.42;12.23;;;8.20;99.90;;;;;;5092363;28;20980;-72
2023/02/24 03:38:37;;;;;;;19.10;11.52;;;8.10;99.90;;;;;;5092182;28;20257;-73
2023/02/24 03:41:09;;;;;;;17.55;11.20;;;8.20;99.90;;;;;;5087137;28;20200;-72
2023/02/24 03:43:40;;;;;;;14.27;9.82;;;8.20;99.90;;;;;;5071544;28;20658;-73
2023/02/24 03:46:07;;;;;;;19.08;11.05;;;8.20;99.90;;;;;;5071964;28;20660;-73
2023/02/24 03:48:43;;;;;;;14.90;10.57;;;8.20;99.90;;;;;;5071878;28;20226;-72
2023/02/24 03:51:15;;;;;;;20.83;11.80;;;8.10;99.90;;;;;;5071912;28;20551;-72
2023/02/24 03:53:56;;;;;;;15.15;10.00;;;8.10;99.90;;;;;;5070624;28;20204;-72
2023/02/24 03:56:32;;;;;;;13.10;8.68;;;8.10;99.90;;;;;;5071826;28;20206;-73
2023/02/24 03:59:13;;;;;;;12.80;9.60;;;8.10;99.90;;;;;;5071737;28;20210;-73
2023/02/24 04:01:48;;;;;;;17.38;11.50;;;8.10;99.90;;;;;;5090237;28;20612;-73
2023/02/24 04:04:21;;;;;;;16.20;9.98;;;8.00;99.90;;;;;;5091714;28;20640;-73
2023/02/24 04:06:54;;;;;;;16.27;11.00;;;8.10;99.90;;;;;;5091531;28;20230;-73
2023/02/24 04:09:31;;;;;;;16.52;11.25;;;8.00;99.90;;;;;;5091943;28;20286;-73
2023/02/24 04:12:08;;;;;;;17.00;10.45;;;8.00;99.90;;;;;;5091464;28;20202;-73
2023/02/24 04:14:43;;;;;;;17.15;11.15;;;8.00;99.90;;;;;;5091906;28;20196;-73
2023/02/24 04:17:18;;;;;;;17.38;11.40;;;8.10;99.90;;;;;;5091678;28;20227;-73
2023/02/24 04:19:48;;;;;;;18.27;11.57;;;8.10;99.90;;;;;;5091371;28;20209;-73
2023/02/24 04:22:22;;;;;;;17.95;11.07;;;8.10;99.90;;;;;;5091661;28;20298;-73
2023/02/24 04:24:54;;;;;;;16.27;10.95;;;8.10;99.90;;;;;;5091471;28;20195;-73
2023/02/24 04:27:22;;;;;;;16.77;11.65;;;8.20;99.90;;;;;;5091557;28;20223;-73
2023/02/24 04:29:54;;;;;;;18.15;10.75;;;8.20;99.90;;;;;;5091197;28;20200;-73
2023/02/24 04:32:26;;;;;;;22.27;12.00;;;8.20;99.90;;;;;;5091203;28;20196;-72
2023/02/24 04:34:53;;;;;;;21.77;11.70;;;8.20;99.90;;;;;;5090623;28;20204;-73
2023/02/24 04:37:21;;;;;;;20.20;10.80;;;8.20;99.90;;;;;;5081666;28;20702;-73
2023/02/24 04:39:49;;;;;;;19.55;10.70;;;8.30;99.90;;;;;;5077676;28;20196;-73
2023/02/24 04:42:18;;;;;;;16.52;10.82;;;8.30;99.90;;;;;;5074322;28;20246;-72
2023/02/24 04:44:46;;;;;;;17.10;11.18;;;8.20;99.90;;;;;;5088324;28;20234;-72
2023/02/24 04:47:13;;;;;;;18.40;11.70;;;8.20;99.90;;;;;;5090480;28;20238;-73
2023/02/24 04:49:40;;;;;;;16.95;11.40;;;8.20;99.90;;;;;;5089841;28;20207;-73
2023/02/24 04:52:08;;;;;;;19.67;11.75;;;8.20;99.90;;;;;;5075565;28;20191;-73
2023/02/24 04:54:36;;;;;;;20.77;12.48;;;8.20;99.90;;;;;;5090612;28;20203;-73
2023/02/24 04:57:05;;;;;;;22.02;12.35;;;8.20;99.90;;;;;;5090658;28;20703;-73
2023/02/24 04:59:32;;;;;;;17.90;12.38;;;8.20;99.90;;;;;;5090827;28;20272;-73
2023/02/24 05:02:00;;;;;;;20.20;12.38;;;8.20;99.90;;;;;;5090354;28;20216;-73
2023/02/24 05:04:30;;;;;;;19.50;12.02;;;8.20;99.90;;;;;;5090239;28;20621;-73
2023/02/24 05:06:57;;;;;;;21.60;12.93;;;8.20;99.90;;;;;;5091120;28;20219;-73
2023/02/24 05:09:28;;;;;;;26.52;15.30;;;8.10;99.90;;;;;;5091212;28;20667;-73
2023/02/24 05:11:57;;;;;;;21.77;12.77;;;8.10;99.90;;;;;;5090378;28;20200;-73
2023/02/24 05:14:25;;;;;;;21.30;13.45;;;8.10;99.90;;;;;;5082888;28;20283;-73
2023/02/24 05:16:52;;;;;;;20.70;12.02;;;8.10;99.90;;;;;;5070171;28;20220;-73
2023/02/24 05:22:05;;;;;;;20.48;12.90;;;8.10;99.90;;;;;;5070084;28;20227;-71
2023/02/24 05:24:33;;;;;;;25.83;13.75;;;8.10;99.90;;;;;;5078463;28;20693;-70
2023/02/24 05:27:02;;;;;;;25.85;13.60;;;8.10;99.90;;;;;;5069874;28;20220;-71
2023/02/24 05:29:31;;;;;;;24.52;13.27;;;8.10;99.90;;;;;;5070469;28;20250;-71
2023/02/24 05:31:59;;;;;;;24.50;12.88;;;8.10;99.90;;;;;;5081936;28;20199;-71
2023/02/24 05:34:26;;;;;;;28.00;13.85;;;8.10;99.90;;;;;;5090030;28;20583;-70
2023/02/24 05:36:53;;;;;;;22.98;13.93;;;8.10;99.90;;;;;;5089535;28;20234;-71
2023/02/24 05:39:20;;;;;;;27.83;14.77;;;8.10;99.90;;;;;;5090221;28;20200;-71
2023/02/24 05:41:49;;;;;;;26.30;13.82;;;8.10;99.90;;;;;;5089685;28;20208;-71
2023/02/24 05:44:22;;;;;;;24.38;14.32;;;8.10;99.90;;;;;;5089772;28;20208;-71
2023/02/24 05:46:50;;;;;;;25.65;13.93;;;8.10;99.90;;;;;;5089895;28;20651;-71
2023/02/24 05:49:22;;;;;;;28.42;15.23;;;8.20;99.90;;;;;;5075615;28;20698;-70
2023/02/24 05:51:54;;;;;;;29.42;13.68;;;8.10;99.90;;;;;;5069530;28;20250;-71
2023/02/24 05:54:23;;;;;;;26.83;15.35;;;8.20;99.90;;;;;;5069629;28;20200;-71
2023/02/24 05:56:49;;;;;;;25.80;14.88;;;8.10;99.90;;;;;;5069587;28;20583;-70
2023/02/24 05:59:20;;;;;;;23.52;14.18;;;8.10;99.90;;;;;;5069999;28;20204;-70
2023/02/24 06:01:48;;;;;;;22.08;12.23;;;8.10;99.90;;;;;;5069489;28;20201;-70
2023/02/24 06:04:26;;;;;;;28.90;15.50;;;8.10;99.90;;;;;;5069206;28;20211;-71
2023/02/24 06:06:53;;;;;;;27.50;14.25;;;8.10;99.90;;;;;;5069038;28;20691;-70
2023/02/24 06:09:22;;;;;;;25.27;15.15;;;8.10;99.90;;;;;;5070229;28;20200;-70
2023/02/24 06:11:49;;;;;;;24.27;13.90;;;8.20;99.90;;;;;;5069204;28;20224;-71
2023/02/24 06:14:17;;;;;;;28.45;15.20;;;8.20;99.90;;;;;;5069123;28;20200;-71
2023/02/24 06:16:44;;;;;;;25.13;13.38;;;8.10;99.90;;;;;;5072771;28;20224;-71
2023/02/24 06:19:12;;;;;;;29.50;14.52;;;8.10;99.90;;;;;;5073557;28;20200;-70
2023/02/24 06:21:42;;;;;;;25.80;14.35;;;8.10;99.90;;;;;;5073444;28;20232;-70
2023/02/24 06:24:14;;;;;;;28.83;15.38;;;8.10;99.90;;;;;;5072838;28;20247;-70
2023/02/24 06:26:42;;;;;;;24.40;13.38;;;8.10;99.90;;;;;;5073406;28;20229;-71
2023/02/24 06:29:13;;;;;;;24.25;12.85;;;8.10;99.90;;;;;;5073389;28;20659;-71
2023/02/24 06:31:42;;;;;;;28.75;14.75;;;8.10;99.90;;;;;;5073281;28;20274;-71
2023/02/24 06:34:10;;;;;;;28.48;14.20;;;8.10;99.90;;;;;;5072875;28;20242;-71
2023/02/24 06:36:37;;;;;;;26.00;14.38;;;8.10;99.90;;;;;;5073091;28;20248;-70
2023/02/24 06:39:06;;;;;;;25.00;13.98;;;8.00;99.90;;;;;;5072882;28;20196;-71
2023/02/24 06:41:34;;;;;;;28.55;14.23;;;8.00;99.90;;;;;;5073302;28;20200;-71
2023/02/24 06:44:01;;;;;;;24.77;14.55;;;8.00;99.90;;;;;;5072209;28;20208;-70
2023/02/24 06:46:28;;;;;;;30.55;14.15;;;8.00;99.90;;;;;;5076900;28;20231;-71
2023/02/24 06:48:57;;;;;;;25.80;14.85;;;7.90;99.90;;;;;;5082006;28;20204;-71
2023/02/24 06:51:28;;;;;;;22.95;12.77;;;8.00;99.90;;;;;;5087913;28;20242;-70
2023/02/24 06:53:56;;;;;;;27.33;13.50;;;8.00;99.90;;;;;;5150001;22;20215;-88
2023/02/24 06:56:24;;;;;;;28.75;14.48;;;8.00;99.90;;;;;;5112018;28;20183;-89
2023/02/24 06:58:57;;;;;;;22.70;12.70;;;8.10;99.90;;;;;;5109345;28;20203;-89
2023/02/24 07:01:27;;;;;;;20.70;12.63;;;8.10;99.90;;;;;;5108258;28;20184;-89
2023/02/24 07:04:16;;;;;;;30.27;13.25;;;8.10;99.90;;;;;;5110068;28;20227;-90
2023/02/24 07:06:46;;;;;;;25.25;11.80;;;8.10;99.90;;;;;;5103265;28;20188;-89
2023/02/24 07:09:15;;;;;;;31.65;15.38;;;8.10;99.90;;;;;;5109807;28;20229;-91
2023/02/24 07:11:44;;;;;;;21.67;13.40;;;8.10;99.90;;;;;;5095712;28;20228;-89
2023/02/24 07:14:12;;;;;;;24.30;14.27;;;8.00;99.90;;;;;;5105850;28;20220;-91
2023/02/24 07:16:44;;;;;;;29.55;13.70;;;8.00;99.90;;;;;;5100496;28;20204;-93
2023/02/24 07:19:14;;;;;;;27.27;13.30;;;8.10;99.90;;;;;;5101008;28;20200;-93
2023/02/24 07:21:48;;;;;;;27.75;13.27;;;8.10;99.90;;;;;;5108567;28;20217;-93
2023/02/24 07:24:23;;;;;;;19.30;12.85;;;8.00;99.90;;;;;;5092456;28;20230;-93
2023/02/24 07:26:55;;;;;;;22.02;12.23;;;8.00;99.90;;;;;;5087644;28;20286;-93
2023/02/24 07:29:22;;;;;;;21.05;12.30;;;8.00;99.90;;;;;;5089981;28;20195;-94
2023/02/24 07:31:50;;;;;;;25.02;12.95;;;8.00;99.90;;;;;;5091869;28;20200;-93
2023/02/24 07:34:28;;;;;;;16.65;11.27;;;8.00;99.90;;;;;;5106974;28;20614;-94
2023/02/24 07:36:56;;;;;;;20.88;12.90;;;8.00;99.90;;;;;;5089117;28;20405;-95
2023/02/24 07:39:23;;;;;;;22.83;11.90;;;8.00;99.90;;;;;;5096123;28;20210;-92
2023/02/24 07:41:53;;;;;;;20.25;12.38;;;8.10;99.90;;;;;;5102116;28;20207;-93
2023/02/24 07:44:22;;;;;;;21.77;13.23;;;8.20;99.90;;;;;;5102236;28;20224;-93
2023/02/24 07:46:50;;;;;;;22.60;12.50;;;8.20;99.90;;;;;;5103423;28;20212;-92
2023/02/24 07:49:19;;;;;;;23.58;12.60;;;8.30;99.90;;;;;;5102975;28;20210;-93
2023/02/24 07:51:51;;;;;;;23.13;13.40;;;8.30;99.90;;;;;;5104614;28;20206;-91
2023/02/24 07:54:19;;;;;;;21.75;11.60;;;8.30;99.90;;;;;;5103067;28;20712;-93
2023/02/24 07:56:55;;;;;;;19.67;12.70;;;8.40;99.90;;;;;;5101340;28;20203;-94
2023/02/24 07:59:31;;;;;;;28.25;14.57;;;8.40;99.90;;;;;;5105434;28;20184;-93
2023/02/24 08:01:58;;;;;;;23.75;12.43;;;8.40;99.90;;;;;;5104192;28;20656;-92
2023/02/24 08:04:28;;;;;;;19.63;12.45;;;8.40;99.90;;;;;;5102074;28;20235;-93
2023/02/24 08:06:57;;;;;;;26.02;12.50;;;8.40;99.90;;;;;;5101651;28;20219;-93
2023/02/24 08:12:22;;;;;;;19.15;10.13;;;8.40;99.90;;;;;;5061195;28;20255;-91
2023/02/24 08:14:59;;;;;;;18.42;11.18;;;8.40;99.90;;;;;;5098984;28;20220;-92
2023/02/24 08:17:27;;;;;;;16.77;10.90;;;8.50;99.90;;;;;;5112325;28;20199;-93
2023/02/24 08:20:20;;;;;;;17.27;10.85;;;8.50;99.90;;;;;;5104346;28;20202;-91
2023/02/24 08:22:52;;;;;;;16.50;9.85;;;8.50;99.90;;;;;;5105214;28;20204;-92
2023/02/24 08:25:21;;;;;;;18.98;9.93;;;8.50;99.90;;;;;;5106102;28;20227;-93
2023/02/24 08:27:54;;;;;;;19.15;10.60;;;8.50;99.90;;;;;;5108606;28;20207;-92
2023/02/24 08:30:28;;;;;;;17.63;9.05;;;8.60;99.90;;;;;;5105783;27;20214;-93
2023/02/24 08:32:57;;;;;;;19.88;11.15;;;8.60;99.90;;;;;;5107701;28;20218;-94
2023/02/24 08:35:30;;;;;;;20.45;11.73;;;8.70;99.90;;;;;;5103852;28;20200;-93
2023/02/24 08:38:04;;;;;;;17.30;11.23;;;8.70;99.90;;;;;;5104044;28;20641;-92
2023/02/24 08:40:50;;;;;;;17.77;10.80;;;8.80;99.90;;;;;;5106927;28;20200;-93
2023/02/24 08:46:24;;;;;;;18.55;11.25;;;8.80;99.90;;;;;;5130614;27;20521;-71
2023/02/24 08:48:55;;;;;;;16.48;10.15;;;8.70;99.90;;;;;;5110184;28;20202;-70
2023/02/24 08:51:27;;;;;;;17.23;10.95;;;8.60;99.90;;;;;;5101844;28;20226;-70
2023/02/24 08:53:55;;;;;;;17.35;10.85;;;8.70;99.90;;;;;;5108722;28;20199;-70
2023/02/24 08:56:24;;;;;;;17.23;9.32;;;8.80;99.90;;;;;;5098143;28;20196;-70
2023/02/24 08:58:55;;;;;;;16.92;10.68;;;9.00;99.90;;;;;;5107146;28;20203;-70
2023/02/24 09:01:26;;;;;;;19.25;11.00;;;9.70;99.90;;;;;;5111056;28;20596;-70
2023/02/24 09:03:55;;;;;;;17.50;9.73;;;10.60;99.90;;;;;;5109339;28;20202;-70
2023/02/24 09:06:25;;;;;;;14.57;9.10;;;11.40;99.90;;;;;;5097613;28;20200;-70
2023/02/24 09:11:42;;;;;;;18.92;9.25;;;12.20;99.90;;;;;;5097596;28;20198;-70
2023/02/24 09:14:15;;;;;;;16.25;10.40;;;12.30;99.90;;;;;;5162119;22;20649;-71
2023/02/24 09:17:00;;;;;;;11.32;7.70;;;12.30;99.90;;;;;;5128785;28;20301;-70
2023/02/24 09:20:22;;;;;;;11.33;8.77;;;12.20;99.90;;;;;;5128889;27;20261;-69
2023/02/24 09:22:32;;;;;;;11.05;7.63;;;12.50;99.90;;;;;;5123170;27;20455;-69
2023/02/24 09:25:22;;;;;;;13.60;8.30;;;12.50;99.90;;;;;;5129026;28;20217;-70
2023/02/24 09:27:54;;;;;;;12.37;7.57;;;12.10;99.90;;;;;;5128671;28;20480;-70
2023/02/24 09:30:36;;;;;;;12.68;8.35;;;11.80;99.90;;;;;;5128859;28;20863;-70
2023/02/24 09:33:20;;;;;;;15.98;8.52;;;11.60;99.90;;;;;;5127138;28;20263;-70
2023/02/24 09:35:49;;;;;;;12.68;8.15;;;11.50;99.90;;;;;;5128490;28;20195;-70
2023/02/24 09:38:17;;;;;;;12.85;9.73;;;11.50;99.90;;;;;;5121204;28;20222;-69
2023/02/24 09:40:51;;;;;;;13.13;7.95;;;11.50;99.90;;;;;;5128193;28;20209;-70
2023/02/24 09:43:23;;;;;;;12.10;7.35;;;11.60;99.90;;;;;;5127493;28;20194;-70
2023/02/24 09:45:57;;;;;;;11.43;6.55;;;11.70;99.90;;;;;;5127348;28;20279;-69
2023/02/24 09:48:42;;;;;;;12.25;6.85;;;11.70;99.90;;;;;;5120925;27;20681;-70
2023/02/24 09:51:20;;;;;;;11.45;6.93;;;11.60;99.90;;;;;;5123987;27;20211;-70
2023/02/24 09:53:51;;;;;;;11.97;6.80;;;11.50;99.90;;;;;;5124523;27;20202;-69
2023/02/24 09:56:23;;;;;;;15.10;8.50;;;11.50;99.90;;;;;;5110794;27;20452;-70
2023/02/24 09:58:57;;;;;;;11.88;7.38;;;11.50;99.90;;;;;;5113136;27;20256;-69
2023/02/24 10:01:33;;;;;;;9.07;6.32;;;11.50;99.90;;;;;;5113442;28;20222;-69
2023/02/24 10:04:11;;;;;;;12.10;7.13;;;11.50;99.90;;;;;;5113630;28;20286;-70
2023/02/24 10:06:40;;;;;;;12.95;6.65;;;11.60;99.90;;;;;;5113870;27;20215;-70
2023/02/24 10:09:20;;;;;;;7.97;6.20;;;11.60;99.90;;;;;;5112790;28;20209;-70
2023/02/24 10:11:53;;;;;;;9.50;6.15;;;11.50;99.90;;;;;;5114437;28;20558;-71
2023/02/24 10:14:45;;;;;;;8.35;5.10;;;11.40;99.90;;;;;;5112418;27;21046;-69
2023/02/24 10:17:24;;;;;;;9.15;6.65;;;11.30;99.90;;;;;;5112290;28;20715;-71
2023/02/24 10:19:58;;;;;;;7.70;5.00;;;11.20;99.90;;;;;;5113344;27;20221;-70
2023/02/24 10:22:38;;;;;;;9.02;5.53;;;11.20;99.90;;;;;;5113073;27;20205;-70
2023/02/24 10:25:22;;;;;;;7.70;4.88;;;11.10;99.90;;;;;;5112108;28;20230;-70
2023/02/24 10:27:59;;;;;;;7.70;5.00;;;11.10;99.90;;;;;;5115257;28;20263;-70
2023/02/24 10:30:40;;;;;;;15.63;5.93;;;11.20;99.90;;;;;;5114079;27;20278;-70
2023/02/24 10:33:24;;;;;;;8.93;5.68;;;11.40;99.90;;;;;;5112543;27;20203;-70
2023/02/24 10:36:08;;;;;;;8.88;4.70;;;11.60;99.90;;;;;;5112764;27;20223;-69
2023/02/24 10:38:36;;;;;;;7.82;4.85;;;11.60;99.90;;;;;;5112126;28;20310;-72
2023/02/24 10:41:05;;;;;;;6.20;4.95;;;11.70;99.90;;;;;;5112441;27;20203;-70
2023/02/24 10:43:44;;;;;;;7.72;5.53;;;11.70;99.90;;;;;;5112148;27;20451;-70
2023/02/24 10:46:24;;;;;;;7.53;4.05;;;11.70;99.90;;;;;;5112719;28;20223;-70
2023/02/24 10:48:59;;;;;;;8.05;5.10;;;11.60;99.90;;;;;;5108980;28;20282;-70
2023/02/24 10:51:31;;;;;;;9.80;4.55;;;11.60;99.90;;;;;;5107343;28;20232;-69
2023/02/24 10:54:33;;;;;;;6.25;4.65;;;11.50;99.90;;;;;;5111311;28;20248;-70
2023/02/24 10:57:14;;;;;;;6.55;4.57;;;11.40;99.90;;;;;;5110406;28;20263;-72
2023/02/24 11:02:55;;;;;;;7.03;5.15;;;11.30;99.90;;;;;;5110186;27;20218;-69
2023/02/24 11:05:43;;;;;;;7.55;5.07;;;11.20;99.90;;;;;;5103465;27;20282;-70
2023/02/24 11:08:35;;;;;;;7.55;4.95;;;11.20;99.90;;;;;;5111647;28;20223;-70
2023/02/24 11:11:18;;;;;;;10.05;5.95;;;11.00;99.90;;;;;;5112493;27;20252;-69
2023/02/24 11:19:32;;;;;;;8.68;6.43;;;10.60;99.90;;;;;;5113003;27;20210;-69
2023/02/24 11:22:00;;;;;;;16.50;6.55;;;10.40;99.90;;;;;;5114049;28;20218;-70
2023/02/24 11:24:29;;;;;;;9.80;5.65;;;10.30;99.90;;;;;;5115663;28;20199;-71
2023/02/24 11:26:58;;;;;;;7.50;5.47;;;10.30;99.90;;;;;;5115485;28;20706;-70
2023/02/24 11:29:38;;;;;;;8.98;5.63;;;10.20;99.90;;;;;;5111901;28;20199;-70
2023/02/24 11:32:30;;;;;;;8.75;6.15;;;10.10;99.90;;;;;;5108788;28;20284;-70
2023/02/24 11:35:04;;;;;;;15.32;7.25;;;10.10;99.90;;;;;;5110467;27;20191;-70
2023/02/24 11:37:38;;;;;;;7.60;5.60;;;10.00;99.90;;;;;;5110606;27;20254;-71
2023/02/24 11:40:14;;;;;;;8.68;5.93;;;9.90;99.90;;;;;;5107972;28;20727;-70
2023/02/24 11:42:47;;;;;;;11.32;6.38;;;10.00;99.90;;;;;;5110425;28;20194;-71
2023/02/24 11:45:25;;;;;;;11.05;6.15;;;9.90;99.90;;;;;;5110018;28;20233;-70
2023/02/24 11:47:58;;;;;;;13.38;5.85;;;10.00;99.90;;;;;;5109959;27;20741;-71
2023/02/24 11:50:42;;;;;;;11.60;6.40;;;10.00;99.90;;;;;;5102718;28;20239;-70
2023/02/24 11:53:18;;;;;;;10.52;6.05;;;10.00;99.90;;;;;;5115520;27;20256;-71
2023/02/24 11:55:55;;;;;;;9.02;5.88;;;10.10;99.90;;;;;;5110570;27;20252;-71
2023/02/24 11:58:28;;;;;;;8.27;5.40;;;10.10;99.90;;;;;;5102345;28;20218;-70
2023/02/24 12:01:01;;;;;;;9.00;5.70;;;10.20;99.90;;;;;;5110279;28;20666;-71
2023/02/24 12:03:37;;;;;;;7.53;5.35;;;10.30;99.90;;;;;;5109617;28;20573;-71
2023/02/24 12:06:13;;;;;;;9.15;5.72;;;10.40;99.90;;;;;;5110096;28;20717;-70
2023/02/24 12:08:45;;;;;;;12.15;5.45;;;10.70;99.90;;;;;;5111083;28;20222;-71
2023/02/24 12:11:18;;;;;;;8.35;5.82;;;11.10;99.90;;;;;;5110900;28;20229;-71
2023/02/24 12:13:51;;;;;;;8.63;5.80;;;11.50;99.90;;;;;;5110804;28;20291;-70
2023/02/24 12:16:24;;;;;;;12.93;6.13;;;11.90;99.90;;;;;;5103360;28;20199;-70
2023/02/24 12:18:57;;;;;;;9.40;5.90;;;12.30;99.90;;;;;;5111467;28;20227;-71
2023/02/24 12:21:32;;;;;;;7.45;5.63;;;12.80;99.90;;;;;;5103700;28;20278;-71
2023/02/24 12:24:04;;;;;;;10.00;5.30;;;13.10;99.90;;;;;;5112475;28;20194;-70
2023/02/24 12:26:41;;;;;;;8.65;4.40;;;13.30;99.90;;;;;;5107306;28;20890;-70
2023/02/24 12:29:41;;;;;;;11.88;6.25;;;13.30;99.90;;;;;;5100514;28;20260;-70
2023/02/24 12:32:15;;;;;;;9.63;6.25;;;13.30;99.90;;;;;;5113445;28;20199;-71
2023/02/24 12:34:54;;;;;;;7.50;4.77;;;13.20;99.90;;;;;;5111978;28;20195;-70
2023/02/24 12:37:44;;;;;;;8.83;5.53;;;13.50;99.90;;;;;;5110146;28;20480;-71
2023/02/24 12:40:22;;;;;;;7.47;4.97;;;14.00;99.90;;;;;;5100036;28;20617;-71
2023/02/24 12:42:58;;;;;;;9.30;4.50;;;14.10;99.90;;;;;;5110730;28;20457;-71
2023/02/24 12:45:35;;;;;;;8.13;5.13;;;14.00;99.90;;;;;;5111158;28;20480;-71
2023/02/24 12:48:15;;;;;;;7.87;3.93;;;13.60;99.90;;;;;;5111452;28;20484;-71
2023/02/24 12:50:50;;;;;;;5.23;3.67;;;13.10;99.90;;;;;;5112148;28;20456;-71
2023/02/24 12:53:22;;;;;;;7.73;4.93;;;12.70;99.90;;;;;;5099907;28;20485;-71
2023/02/24 12:56:00;;;;;;;9.80;4.93;;;12.40;99.90;;;;;;5107132;28;20877;-71
2023/02/24 12:58:35;;;;;;;6.05;5.03;;;12.10;99.90;;;;;;5094671;28;21084;-71
2023/02/24 13:01:14;;;;;;;11.70;5.40;;;11.90;99.90;;;;;;5109196;28;20204;-69
2023/02/24 13:04:02;;;;;;;6.25;5.00;;;11.80;99.90;;;;;;5109270;28;20456;-71
2023/02/24 13:06:44;;;;;;;6.88;4.65;;;11.70;99.90;;;;;;5101905;28;20272;-71
2023/02/24 13:09:18;;;;;;;10.10;6.97;;;11.70;99.90;;;;;;5110242;28;20213;-70
2023/02/24 13:11:51;;;;;;;10.60;5.47;;;11.70;99.90;;;;;;5111477;28;20787;-70
2023/02/24 13:14:27;;;;;;;6.47;4.68;;;11.70;99.90;;;;;;5112139;28;20358;-71
2023/02/24 13:17:17;;;;;;;9.60;4.45;;;11.70;99.90;;;;;;5111994;28;20223;-70
2023/02/24 13:19:45;;;;;;;6.93;4.43;;;11.50;99.90;;;;;;5110793;28;20228;-70
2023/02/24 13:22:28;;;;;;;7.35;4.97;;;11.50;99.90;;;;;;5109992;28;20600;-71
2023/02/24 13:25:12;;;;;;;7.07;5.00;;;11.50;99.90;;;;;;5110448;28;20230;-71
2023/02/24 13:27:41;;;;;;;7.20;4.95;;;11.50;99.90;;;;;;5104725;28;20223;-71
2023/02/24 13:30:29;;;;;;;9.60;5.22;;;11.50;99.90;;;;;;5109519;28;20215;-71